createdAt,value
2019-04-23T00:07:07.401Z,22.93
2019-04-23T00:11:57.719Z,22.80
2019-04-23T00:17:11.598Z,25.72
2019-04-23T00:22:20.489Z,22.05
2019-04-23T00:32:39.159Z,20.23
2019-04-23T00:38:05.543Z,23.75
2019-04-23T00:42:53.265Z,25.20
2019-04-23T00:47:55.115Z,19.37
2019-04-23T00:53:15.809Z,22.82
2019-04-23T00:58:30.153Z,27.05
2019-04-23T01:03:23.633Z,22.60
2019-04-23T01:08:41.991Z,33.70
2019-04-23T01:13:43.233Z,27.20
2019-04-23T01:18:54.093Z,31.25
2019-04-23T01:24:08.108Z,27.32
2019-04-23T01:29:36.958Z,27.62
2019-04-23T01:34:51.677Z,29.52
2019-04-23T01:39:53.209Z,28.77
2019-04-23T01:45:07.311Z,29.60
2019-04-23T01:50:14.279Z,24.43
2019-04-23T01:55:21.361Z,23.32
2019-04-23T02:05:34.985Z,23.80
2019-04-23T02:15:49.197Z,29.30
2019-04-23T02:20:59.549Z,26.97
2019-04-23T02:26:10.955Z,21.95
2019-04-23T02:41:46.535Z,28.32
2019-04-23T02:46:51.693Z,22.82
2019-04-23T02:52:01.816Z,22.75
2019-04-23T03:02:30.379Z,26.30
2019-04-23T03:07:33.302Z,22.90
2019-04-23T03:12:31.413Z,28.75
2019-04-23T03:18:11.914Z,23.12
2019-04-23T03:28:31.437Z,24.60
2019-04-23T03:38:45.672Z,22.52
2019-04-23T03:43:41.225Z,22.20
2019-04-23T03:54:27.447Z,25.00
2019-04-23T03:59:10.665Z,26.60
2019-04-23T04:09:34.243Z,24.92
2019-04-23T04:14:42.061Z,19.17
2019-04-23T04:30:10.691Z,26.70
2019-04-23T04:40:23.403Z,21.70
2019-04-23T04:45:36.996Z,24.10
2019-04-23T04:50:14.836Z,22.48
2019-04-23T04:55:37.603Z,19.75
2019-04-23T05:06:11.348Z,22.15
2019-04-23T05:16:09.650Z,22.82
2019-04-23T05:26:27.027Z,27.58
2019-04-23T05:36:43.912Z,23.45
2019-04-23T05:41:41.229Z,20.95
2019-04-23T05:46:56.379Z,18.82
2019-04-23T05:52:00.435Z,18.27
2019-04-23T05:57:06.635Z,22.75
2019-04-23T06:02:13.202Z,22.42
2019-04-23T06:12:31.851Z,20.75
2019-04-23T06:17:37.715Z,20.08
2019-04-23T06:22:51.087Z,23.27
2019-04-23T06:28:01.994Z,19.90
2019-04-23T06:33:08.910Z,22.77
2019-04-23T06:38:40.183Z,21.00
2019-04-23T06:43:30.194Z,19.20
2019-04-23T06:48:35.538Z,18.55
2019-04-23T06:53:37.408Z,22.17
2019-04-23T06:58:53.018Z,22.80
2019-04-23T07:04:02.974Z,22.32
2019-04-23T07:14:02.566Z,19.52
2019-04-23T07:19:27.257Z,21.00
2019-04-23T07:24:28.415Z,21.48
2019-04-23T07:29:55.579Z,19.80
2019-04-23T07:34:49.385Z,19.65
2019-04-23T07:40:19.670Z,16.00
2019-04-23T07:55:41.367Z,17.55
2019-04-23T08:05:49.634Z,12.05
2019-04-23T08:26:53.522Z,14.85
2019-04-23T08:37:09.244Z,17.20
2019-04-23T08:47:27.053Z,13.90
2019-04-23T08:52:38.384Z,15.28
2019-04-23T08:57:59.215Z,15.88
2019-04-23T09:03:11.220Z,18.60
2019-04-23T09:08:10.230Z,15.00
2019-04-23T09:13:35.269Z,19.32
2019-04-23T09:18:16.665Z,14.98
2019-04-23T09:23:30.913Z,15.93
2019-04-23T09:28:41.358Z,18.23
2019-04-23T09:39:12.737Z,15.30
2019-04-23T09:44:56.554Z,14.70
2019-04-23T09:49:46.752Z,18.02
2019-04-23T10:00:12.728Z,15.05
2019-04-23T10:05:01.380Z,18.67
2019-04-23T10:09:53.538Z,14.87
2019-04-23T10:15:08.142Z,21.15
2019-04-23T10:20:08.714Z,16.65
2019-04-23T10:25:15.360Z,19.48
2019-04-23T10:30:21.887Z,24.35
2019-04-23T10:35:39.072Z,17.05
2019-04-23T10:40:41.614Z,27.13
2019-04-23T10:46:16.875Z,25.27
2019-04-23T10:51:34.069Z,21.60
2019-04-23T10:56:46.326Z,18.23
2019-04-23T11:01:53.138Z,18.52
2019-04-23T11:07:02.848Z,18.00
2019-04-23T11:12:24.199Z,20.00
2019-04-23T11:17:26.954Z,11.53
2019-04-23T11:27:35.168Z,18.95
2019-04-23T11:53:21.073Z,17.32
2019-04-23T12:03:50.802Z,15.50
2019-04-23T12:09:22.246Z,17.85
2019-04-23T12:14:22.833Z,17.70
2019-04-23T12:19:51.316Z,12.07
2019-04-23T12:24:58.807Z,19.87
2019-04-23T12:29:44.572Z,17.75
2019-04-23T12:34:57.862Z,18.55
2019-04-23T12:40:00.967Z,17.55
2019-04-23T12:45:09.591Z,15.72
2019-04-23T12:55:23.290Z,13.30
2019-04-23T13:00:29.604Z,20.82
2019-04-23T13:10:50.093Z,14.75
2019-04-23T13:21:02.134Z,16.87
2019-04-23T13:26:18.172Z,15.72
2019-04-23T13:31:25.710Z,16.10
2019-04-23T13:36:41.776Z,12.23
2019-04-23T13:41:40.434Z,16.65
2019-04-23T13:46:55.335Z,13.78
2019-04-23T13:52:02.481Z,18.80
2019-04-23T13:57:34.740Z,16.73
2019-04-23T14:02:23.450Z,15.60
2019-04-23T14:07:32.931Z,18.87
2019-04-23T14:12:35.289Z,18.55
2019-04-23T14:17:59.440Z,17.10
2019-04-23T14:23:02.910Z,14.43
2019-04-23T14:28:08.056Z,15.28
2019-04-23T14:33:12.305Z,13.48
2019-04-23T14:48:27.958Z,12.80
2019-04-23T14:53:30.264Z,10.15
2019-04-23T14:58:50.659Z,14.75
2019-04-23T15:09:04.215Z,16.45
2019-04-23T15:14:10.144Z,12.82
2019-04-23T15:19:36.685Z,11.90
2019-04-23T15:29:27.574Z,12.05
2019-04-23T15:34:51.923Z,14.75
2019-04-23T15:40:02.337Z,15.00
2019-04-23T15:45:07.965Z,13.85
2019-04-23T15:50:19.832Z,17.92
2019-04-23T15:55:38.650Z,15.50
2019-04-23T16:00:25.867Z,17.32
2019-04-23T16:05:09.392Z,17.25
2019-04-23T16:10:50.415Z,12.73
2019-04-23T16:16:02.571Z,16.07
2019-04-23T16:21:04.918Z,16.02
2019-04-23T16:26:14.740Z,17.20
2019-04-23T16:31:34.700Z,17.17
2019-04-23T16:36:25.297Z,16.25
2019-04-23T16:41:30.879Z,16.37
2019-04-23T16:46:48.280Z,17.12
2019-04-23T16:51:59.180Z,19.77
2019-04-23T17:02:11.494Z,23.45
2019-04-23T17:07:08.524Z,23.67
2019-04-23T17:12:29.376Z,23.90
2019-04-23T17:17:27.376Z,25.20
2019-04-23T17:22:33.982Z,29.63
2019-04-23T17:27:48.930Z,31.60
2019-04-23T17:33:07.793Z,25.15
2019-04-23T17:38:15.064Z,28.10
2019-04-23T17:43:24.076Z,27.25
2019-04-23T17:48:27.212Z,30.43
2019-04-23T17:53:52.421Z,28.52
2019-04-23T17:58:55.041Z,28.73
2019-04-23T18:04:03.095Z,43.45
2019-04-23T18:14:08.532Z,36.03
2019-04-23T18:19:16.860Z,33.33
2019-04-23T18:24:54.165Z,36.85
2019-04-23T18:30:05.427Z,28.52
2019-04-23T18:40:14.541Z,30.85
2019-04-23T18:45:32.063Z,35.75
2019-04-23T18:50:43.157Z,40.35
2019-04-23T19:06:23.803Z,13.22
2019-04-23T19:17:09.081Z,16.83
2019-04-23T19:32:06.300Z,13.75
2019-04-23T19:37:34.863Z,10.53
2019-04-23T19:42:36.737Z,10.32
2019-04-23T19:47:56.978Z,11.40
2019-04-23T19:53:04.310Z,9.30
2019-04-23T20:03:18.565Z,8.90
2019-04-23T20:08:27.697Z,8.60
2019-04-23T20:13:31.430Z,10.38
2019-04-23T20:18:42.951Z,8.23
2019-04-23T20:23:58.735Z,10.75
2019-04-23T20:39:26.677Z,11.22
2019-04-23T20:49:42.974Z,9.25
2019-04-23T20:54:56.639Z,8.50
2019-04-23T21:00:02.037Z,6.35
2019-04-23T21:05:21.817Z,7.25
2019-04-23T21:10:22.444Z,6.47
2019-04-23T21:15:28.354Z,9.70
2019-04-23T21:25:44.209Z,6.15
2019-04-23T21:31:11.378Z,4.28
2019-04-23T21:52:02.196Z,3.98
2019-04-23T21:57:14.701Z,5.20
2019-04-23T22:02:10.840Z,6.60
2019-04-23T22:07:16.434Z,7.33
2019-04-23T22:12:24.754Z,11.50
2019-04-23T22:22:56.921Z,13.85
2019-04-23T22:27:55.767Z,13.68
2019-04-23T22:33:07.195Z,12.88
2019-04-23T22:48:27.379Z,10.50
2019-04-23T22:53:47.831Z,15.32
2019-04-23T22:58:51.519Z,10.23
2019-04-23T23:09:25.862Z,9.08
2019-04-23T23:19:53.663Z,7.60
2019-04-23T23:24:57.919Z,8.15
2019-04-23T23:30:04.856Z,8.10
2019-04-23T23:40:23.917Z,14.63
2019-04-23T23:50:36.581Z,11.93
2019-04-23T23:55:38.004Z,9.68
